createdAt,value
2018-01-26T00:00:40.910Z,7.9
2018-01-26T00:01:42.432Z,7.9
2018-01-26T00:02:43.831Z,7.9
2018-01-26T00:03:45.229Z,7.9
2018-01-26T00:04:46.752Z,7.9
2018-01-26T00:05:48.154Z,7.9
2018-01-26T00:06:49.554Z,8.0
2018-01-26T00:07:51.073Z,7.9
2018-01-26T00:08:52.477Z,7.9
2018-01-26T00:09:53.952Z,7.9
2018-01-26T00:10:55.352Z,7.9
2018-01-26T00:11:56.752Z,7.9
2018-01-26T00:12:58.273Z,8.0
2018-01-26T00:13:59.675Z,7.9
2018-01-26T00:15:01.078Z,7.9
2018-01-26T00:16:02.596Z,7.8
2018-01-26T00:17:03.993Z,7.9
2018-01-26T00:18:05.474Z,8.0
2018-01-26T00:19:06.874Z,8.0
2018-01-26T00:20:08.361Z,7.9
2018-01-26T00:21:09.754Z,8.0
2018-01-26T00:22:11.250Z,7.9
2018-01-26T00:23:12.654Z,7.9
2018-01-26T00:24:14.117Z,7.8
2018-01-26T00:25:15.517Z,7.9
2018-01-26T00:26:16.999Z,7.8
2018-01-26T00:27:18.400Z,7.9
2018-01-26T00:28:19.801Z,7.9
2018-01-26T00:29:21.321Z,7.8
2018-01-26T00:30:22.724Z,7.8
2018-01-26T00:31:24.121Z,7.8
2018-01-26T00:32:25.638Z,7.7
2018-01-26T00:33:27.040Z,7.8
2018-01-26T00:34:28.439Z,7.7
2018-01-26T00:35:29.968Z,7.7
2018-01-26T00:36:31.370Z,7.7
2018-01-26T00:37:32.771Z,7.7
2018-01-26T00:38:34.284Z,7.7
2018-01-26T00:39:35.684Z,7.8
2018-01-26T00:40:37.165Z,7.7
2018-01-26T00:41:38.566Z,7.6
2018-01-26T00:42:39.966Z,7.7
2018-01-26T00:43:41.484Z,7.7
2018-01-26T00:44:42.886Z,7.7
2018-01-26T00:45:44.286Z,7.7
2018-01-26T00:46:45.804Z,7.6
2018-01-26T00:47:47.207Z,7.7
2018-01-26T00:48:48.689Z,7.6
2018-01-26T00:49:50.090Z,7.7
2018-01-26T00:50:51.566Z,7.7
2018-01-26T00:51:52.973Z,7.6
2018-01-26T00:52:54.449Z,7.7
2018-01-26T00:53:55.850Z,7.7
2018-01-26T00:54:57.329Z,7.7
2018-01-26T00:55:58.730Z,7.6
2018-01-26T00:57:00.208Z,7.7
2018-01-26T00:58:01.612Z,7.7
2018-01-26T00:59:03.094Z,7.7
2018-01-26T01:00:04.506Z,7.7
2018-01-26T01:01:05.971Z,7.7
2018-01-26T01:02:07.374Z,7.6
2018-01-26T01:03:08.774Z,7.6
2018-01-26T01:04:10.294Z,7.6
2018-01-26T01:05:11.694Z,7.6
2018-01-26T01:06:13.097Z,7.6
2018-01-26T01:07:14.664Z,7.6
2018-01-26T01:08:16.016Z,7.6
2018-01-26T01:09:17.497Z,7.5
2018-01-26T01:10:18.897Z,7.5
2018-01-26T01:11:20.375Z,7.6
2018-01-26T01:12:21.785Z,7.5
2018-01-26T01:13:23.255Z,7.5
2018-01-26T01:14:24.657Z,7.5
2018-01-26T01:15:26.138Z,7.5
2018-01-26T01:16:27.538Z,7.6
2018-01-26T01:17:29.025Z,7.5
2018-01-26T01:18:30.421Z,7.5
2018-01-26T01:19:31.900Z,7.5
2018-01-26T01:20:33.301Z,7.5
2018-01-26T01:21:34.779Z,7.4
2018-01-26T01:22:36.180Z,7.4
2018-01-26T01:23:37.661Z,7.3
2018-01-26T01:24:39.066Z,7.3
2018-01-26T01:25:40.544Z,7.4
2018-01-26T01:26:41.946Z,7.4
2018-01-26T01:27:43.369Z,7.4
2018-01-26T01:28:44.862Z,7.4
2018-01-26T01:29:46.261Z,7.4
2018-01-26T01:30:47.661Z,7.3
2018-01-26T01:31:49.182Z,7.4
2018-01-26T01:32:50.586Z,7.3
2018-01-26T01:33:51.985Z,7.3
2018-01-26T01:34:53.506Z,7.3
2018-01-26T01:35:54.901Z,7.3
2018-01-26T01:36:56.385Z,7.3
2018-01-26T01:37:57.787Z,7.2
2018-01-26T01:38:59.185Z,7.2
2018-01-26T01:40:00.707Z,7.3
2018-01-26T01:41:02.318Z,7.4
2018-01-26T01:42:03.720Z,7.3
2018-01-26T01:43:05.234Z,7.2
2018-01-26T01:44:06.634Z,7.3
2018-01-26T01:45:08.036Z,7.2
2018-01-26T01:46:09.554Z,7.3
2018-01-26T01:47:10.954Z,7.3
2018-01-26T01:48:12.356Z,7.3
2018-01-26T01:49:13.876Z,7.3
2018-01-26T01:50:15.275Z,7.3
2018-01-26T01:51:16.757Z,7.3
2018-01-26T01:52:18.156Z,7.3
2018-01-26T01:53:19.559Z,7.3
2018-01-26T01:54:21.078Z,7.3
2018-01-26T01:55:22.480Z,7.2
2018-01-26T01:56:23.884Z,7.3
2018-01-26T01:57:25.398Z,7.2
2018-01-26T01:58:26.797Z,7.2
2018-01-26T01:59:28.198Z,7.2
2018-01-26T02:00:29.862Z,7.2
2018-01-26T02:01:31.229Z,7.2
2018-01-26T02:02:32.622Z,7.2
2018-01-26T02:03:34.348Z,7.2
2018-01-26T02:04:35.753Z,7.2
2018-01-26T02:05:37.434Z,7.2
2018-01-26T02:06:38.835Z,7.2
2018-01-26T02:07:40.545Z,7.2
2018-01-26T02:08:41.953Z,7.1
2018-01-26T02:09:43.605Z,7.2
2018-01-26T02:10:45.029Z,7.2
2018-01-26T02:11:46.689Z,7.2
2018-01-26T02:12:48.091Z,7.1
2018-01-26T02:13:49.490Z,7.0
2018-01-26T02:14:51.011Z,7.0
2018-01-26T02:15:52.414Z,7.1
2018-01-26T02:16:53.816Z,7.0
2018-01-26T02:17:55.537Z,7.0
2018-01-26T02:18:56.938Z,7.1
2018-01-26T02:19:58.623Z,7.0
2018-01-26T02:21:00.028Z,7.1
2018-01-26T02:22:01.713Z,7.1
2018-01-26T02:23:03.115Z,7.0
2018-01-26T02:24:04.516Z,7.0
2018-01-26T02:25:06.235Z,7.0
2018-01-26T02:26:07.636Z,6.9
2018-01-26T02:27:09.034Z,7.1
2018-01-26T02:28:10.557Z,7.0
2018-01-26T02:29:11.963Z,7.0
2018-01-26T02:30:13.360Z,7.1
2018-01-26T02:31:15.088Z,7.0
2018-01-26T02:32:16.482Z,7.0
2018-01-26T02:33:17.882Z,7.0
2018-01-26T02:34:19.404Z,7.0
2018-01-26T02:35:20.803Z,7.0
2018-01-26T02:36:22.487Z,7.0
2018-01-26T02:37:23.887Z,7.0
2018-01-26T02:38:25.575Z,7.0
2018-01-26T02:39:26.976Z,7.0
2018-01-26T02:40:28.663Z,7.0
2018-01-26T02:41:30.061Z,7.0
2018-01-26T02:42:31.743Z,6.9
2018-01-26T02:43:33.147Z,7.0
2018-01-26T02:44:34.552Z,6.9
2018-01-26T02:45:36.067Z,6.9
2018-01-26T02:46:37.472Z,6.9
2018-01-26T02:47:38.867Z,6.9
2018-01-26T02:48:40.386Z,7.0
2018-01-26T02:49:41.789Z,7.0
2018-01-26T02:50:43.190Z,6.9
2018-01-26T02:51:44.709Z,7.0
2018-01-26T02:52:46.110Z,7.0
2018-01-26T02:53:47.516Z,7.0
2018-01-26T02:54:49.034Z,7.0
2018-01-26T02:55:50.430Z,7.1
2018-01-26T02:56:51.837Z,7.1
2018-01-26T02:57:53.352Z,7.1
2018-01-26T02:58:54.756Z,7.2
2018-01-26T02:59:56.158Z,7.0
2018-01-26T03:00:57.892Z,7.2
2018-01-26T03:01:59.292Z,7.2
2018-01-26T03:03:00.963Z,7.2
2018-01-26T03:04:02.368Z,7.2
2018-01-26T03:05:04.051Z,7.2
2018-01-26T03:06:05.450Z,7.2
2018-01-26T03:07:07.137Z,7.3
2018-01-26T03:08:08.543Z,7.2
2018-01-26T03:09:09.936Z,7.2
2018-01-26T03:10:11.458Z,7.2
2018-01-26T03:11:12.860Z,7.3
2018-01-26T03:12:14.262Z,7.2
2018-01-26T03:13:15.781Z,7.1
2018-01-26T03:14:17.180Z,7.2
2018-01-26T03:15:18.584Z,7.2
2018-01-26T03:16:20.101Z,7.1
2018-01-26T03:17:21.502Z,7.2
2018-01-26T03:18:22.905Z,7.0
2018-01-26T03:19:24.422Z,7.1
2018-01-26T03:20:25.822Z,7.1
2018-01-26T03:21:27.507Z,7.0
2018-01-26T03:22:28.910Z,7.0
2018-01-26T03:23:30.596Z,7.0
2018-01-26T03:24:31.988Z,6.9
2018-01-26T03:25:33.677Z,6.9
2018-01-26T03:26:35.080Z,6.9
2018-01-26T03:27:36.763Z,6.8
2018-01-26T03:28:38.163Z,6.8
2018-01-26T03:29:39.564Z,6.8
2018-01-26T03:30:41.097Z,6.8
2018-01-26T03:31:42.548Z,6.9
2018-01-26T03:32:43.942Z,6.9
2018-01-26T03:33:45.613Z,6.9
2018-01-26T03:34:47.013Z,6.9
2018-01-26T03:35:49.075Z,6.9
2018-01-26T03:36:50.479Z,6.9
2018-01-26T03:37:51.987Z,6.8
2018-01-26T03:38:53.385Z,6.9
2018-01-26T03:39:55.074Z,6.8
2018-01-26T03:40:56.470Z,6.8
2018-01-26T03:41:58.184Z,6.8
2018-01-26T03:42:59.586Z,6.8
2018-01-26T03:44:01.252Z,6.9
2018-01-26T03:45:02.639Z,6.8
2018-01-26T03:46:04.333Z,6.9
2018-01-26T03:47:05.730Z,6.9
2018-01-26T03:48:07.418Z,7.0
2018-01-26T03:49:08.814Z,7.0
2018-01-26T03:50:10.501Z,7.0
2018-01-26T03:51:11.902Z,6.9
2018-01-26T03:52:13.589Z,6.8
2018-01-26T03:53:14.989Z,6.8
2018-01-26T03:54:16.672Z,6.9
2018-01-26T03:55:18.069Z,7.0
2018-01-26T03:56:19.472Z,6.8
2018-01-26T03:57:21.010Z,7.0
2018-01-26T03:58:22.415Z,7.0
2018-01-26T03:59:23.812Z,6.9
2018-01-26T04:00:25.524Z,7.1
2018-01-26T04:01:26.916Z,7.0
2018-01-26T04:02:28.319Z,7.1
2018-01-26T04:03:29.837Z,7.0
2018-01-26T04:04:31.237Z,7.0
2018-01-26T04:05:32.638Z,7.0
2018-01-26T04:06:34.163Z,6.9
2018-01-26T04:07:35.566Z,7.0
2018-01-26T04:08:37.245Z,7.0
2018-01-26T04:09:38.640Z,6.9
2018-01-26T04:10:40.330Z,6.9
2018-01-26T04:11:41.730Z,6.9
2018-01-26T04:12:43.418Z,6.8
2018-01-26T04:13:44.813Z,6.8
2018-01-26T04:14:46.502Z,6.8
2018-01-26T04:15:47.901Z,6.8
2018-01-26T04:16:49.586Z,6.8
2018-01-26T04:17:50.985Z,6.7
2018-01-26T04:18:52.673Z,6.7
2018-01-26T04:19:54.092Z,6.7
2018-01-26T04:20:55.490Z,6.7
2018-01-26T04:21:56.993Z,6.7
2018-01-26T04:22:58.395Z,6.7
2018-01-26T04:23:59.797Z,6.7
2018-01-26T04:25:01.317Z,6.7
2018-01-26T04:26:02.716Z,6.7
2018-01-26T04:27:04.402Z,6.6
2018-01-26T04:28:05.800Z,6.6
2018-01-26T04:29:07.489Z,6.6
2018-01-26T04:30:08.885Z,6.6
2018-01-26T04:31:10.571Z,6.6
2018-01-26T04:32:11.970Z,6.6
2018-01-26T04:33:13.658Z,6.6
2018-01-26T04:34:15.060Z,6.6
2018-01-26T04:35:16.744Z,6.6
2018-01-26T04:36:18.142Z,6.6
2018-01-26T04:37:19.860Z,6.6
2018-01-26T04:38:21.259Z,6.6
2018-01-26T04:39:22.915Z,6.6
2018-01-26T04:40:24.314Z,6.5
2018-01-26T04:41:25.718Z,6.6
2018-01-26T04:42:27.236Z,6.6
2018-01-26T04:43:28.635Z,6.6
2018-01-26T04:44:30.035Z,6.6
2018-01-26T04:45:31.558Z,6.5
2018-01-26T04:46:32.958Z,6.5
2018-01-26T04:47:34.642Z,6.5
2018-01-26T04:48:36.043Z,6.5
2018-01-26T04:49:37.727Z,6.4
2018-01-26T04:50:39.128Z,6.5
2018-01-26T04:51:40.859Z,6.4
2018-01-26T04:52:42.256Z,6.4
2018-01-26T04:53:43.898Z,6.4
2018-01-26T04:54:45.306Z,6.4
2018-01-26T04:55:46.708Z,6.4
2018-01-26T04:56:48.220Z,6.3
2018-01-26T04:57:49.618Z,6.3
2018-01-26T04:58:51.021Z,6.4
2018-01-26T04:59:52.540Z,6.3
2018-01-26T05:00:53.962Z,6.2
2018-01-26T05:01:55.365Z,6.3
2018-01-26T05:02:56.861Z,6.2
2018-01-26T05:03:58.258Z,6.2
2018-01-26T05:04:59.717Z,6.2
2018-01-26T05:06:01.395Z,6.2
2018-01-26T05:07:02.794Z,6.2
2018-01-26T05:08:04.198Z,6.2
2018-01-26T05:09:05.709Z,6.2
2018-01-26T05:10:07.108Z,6.2
2018-01-26T05:11:08.504Z,6.2
2018-01-26T05:12:10.031Z,6.2
2018-01-26T05:13:11.428Z,6.1
2018-01-26T05:14:13.116Z,6.1
2018-01-26T05:15:14.535Z,6.1
2018-01-26T05:16:16.200Z,6.1
2018-01-26T05:17:17.604Z,6.1
2018-01-26T05:18:19.289Z,6.1
2018-01-26T05:19:20.689Z,6.1
2018-01-26T05:20:22.373Z,6.1
2018-01-26T05:21:23.776Z,6.1
2018-01-26T05:22:25.458Z,6.0
2018-01-26T05:23:26.860Z,6.0
2018-01-26T05:24:28.541Z,6.1
2018-01-26T05:25:29.940Z,6.0
2018-01-26T05:26:31.631Z,6.1
2018-01-26T05:27:33.032Z,5.9
2018-01-26T05:28:34.714Z,5.9
2018-01-26T05:29:36.116Z,5.9
2018-01-26T05:30:37.799Z,6.0
2018-01-26T05:31:39.207Z,5.9
2018-01-26T05:32:40.885Z,6.0
2018-01-26T05:33:42.284Z,5.9
2018-01-26T05:34:44.030Z,5.9
2018-01-26T05:35:45.392Z,6.0
2018-01-26T05:36:47.057Z,5.9
2018-01-26T05:37:48.457Z,5.9
2018-01-26T05:38:50.144Z,6.0
2018-01-26T05:39:51.542Z,6.0
2018-01-26T05:40:53.228Z,6.1
2018-01-26T05:41:54.629Z,6.1
2018-01-26T05:42:56.314Z,6.1
2018-01-26T05:43:57.715Z,6.2
2018-01-26T05:44:59.401Z,6.2
2018-01-26T05:46:00.805Z,6.2
2018-01-26T05:47:02.411Z,6.2
2018-01-26T05:48:03.809Z,6.3
2018-01-26T05:49:05.292Z,6.3
2018-01-26T05:50:06.694Z,6.4
2018-01-26T05:51:08.178Z,6.3
2018-01-26T05:52:09.589Z,6.4
2018-01-26T05:53:11.054Z,6.4
2018-01-26T05:54:12.456Z,6.4
2018-01-26T05:55:13.935Z,6.4
2018-01-26T05:56:15.337Z,6.4
2018-01-26T05:57:16.815Z,6.4
2018-01-26T05:58:18.215Z,6.4
2018-01-26T05:59:19.695Z,6.4
2018-01-26T06:00:21.099Z,6.5
2018-01-26T06:01:22.504Z,6.4
2018-01-26T06:02:24.025Z,6.4
2018-01-26T06:03:25.413Z,6.4
2018-01-26T06:04:26.813Z,6.4
2018-01-26T06:05:28.340Z,6.3
2018-01-26T06:06:29.741Z,6.4
2018-01-26T06:07:31.223Z,6.4
2018-01-26T06:08:32.623Z,6.4
2018-01-26T06:09:34.102Z,6.4
2018-01-26T06:10:35.500Z,6.4
2018-01-26T06:11:36.899Z,6.4
2018-01-26T06:12:38.424Z,6.3
2018-01-26T06:13:40.207Z,6.3
2018-01-26T06:14:41.610Z,6.4
2018-01-26T06:15:43.156Z,6.4
2018-01-26T06:16:44.570Z,6.4
2018-01-26T06:17:46.036Z,6.5
2018-01-26T06:18:47.436Z,6.5
2018-01-26T06:19:48.918Z,6.5
2018-01-26T06:20:50.319Z,6.5
2018-01-26T06:21:51.800Z,6.6
2018-01-26T06:22:53.200Z,6.5
2018-01-26T06:23:54.680Z,6.5
2018-01-26T06:24:56.080Z,6.5
2018-01-26T06:25:57.564Z,6.4
2018-01-26T06:26:58.960Z,6.5
2018-01-26T06:28:00.360Z,6.6
2018-01-26T06:29:01.882Z,6.6
2018-01-26T06:30:03.285Z,6.6
2018-01-26T06:31:04.675Z,6.6
2018-01-26T06:32:06.205Z,6.7
2018-01-26T06:33:07.605Z,6.7
2018-01-26T06:34:09.086Z,6.6
2018-01-26T06:35:10.486Z,6.6
2018-01-26T06:36:11.966Z,6.7
2018-01-26T06:37:13.367Z,6.6
2018-01-26T06:38:14.766Z,6.6
2018-01-26T06:39:16.287Z,6.6
2018-01-26T06:40:17.695Z,6.7
2018-01-26T06:41:19.099Z,6.6
2018-01-26T06:42:20.609Z,6.7
2018-01-26T06:43:22.016Z,6.7
2018-01-26T06:44:23.490Z,6.7
2018-01-26T06:45:24.890Z,6.8
2018-01-26T06:46:26.375Z,6.7
2018-01-26T06:47:27.772Z,6.7
2018-01-26T06:48:29.177Z,6.7
2018-01-26T06:49:30.693Z,6.8
2018-01-26T06:50:32.097Z,6.8
2018-01-26T06:51:33.500Z,6.7
2018-01-26T06:52:35.015Z,6.7
2018-01-26T06:53:36.419Z,6.8
2018-01-26T06:54:37.830Z,6.9
2018-01-26T06:55:39.336Z,6.8
2018-01-26T06:56:40.735Z,6.8
2018-01-26T06:57:42.136Z,6.9
2018-01-26T06:58:43.658Z,6.9
2018-01-26T06:59:45.056Z,6.9
2018-01-26T07:00:46.539Z,6.9
2018-01-26T07:01:47.942Z,6.9
2018-01-26T07:02:49.420Z,6.9
2018-01-26T07:03:50.820Z,6.9
2018-01-26T07:04:52.302Z,6.9
2018-01-26T07:05:53.701Z,6.9
2018-01-26T07:06:55.183Z,7.0
2018-01-26T07:07:56.581Z,7.0
2018-01-26T07:08:58.450Z,7.0
2018-01-26T07:09:59.852Z,7.0
2018-01-26T07:11:01.418Z,7.0
2018-01-26T07:12:02.824Z,6.9
2018-01-26T07:13:04.224Z,6.9
2018-01-26T07:14:05.769Z,7.0
2018-01-26T07:15:07.142Z,7.0
2018-01-26T07:16:08.542Z,6.9
2018-01-26T07:17:09.953Z,6.9
2018-01-26T07:18:11.355Z,6.8
2018-01-26T07:19:12.940Z,6.8
2018-01-26T07:20:14.342Z,6.9
2018-01-26T07:21:16.200Z,6.9
2018-01-26T07:22:17.605Z,7.0
2018-01-26T07:23:19.111Z,6.9
2018-01-26T07:24:20.513Z,6.9
2018-01-26T07:25:22.139Z,6.9
2018-01-26T07:26:23.554Z,6.9
2018-01-26T07:27:24.955Z,6.9
2018-01-26T07:28:26.519Z,6.9
2018-01-26T07:29:27.921Z,6.8
2018-01-26T07:30:29.324Z,6.9
2018-01-26T07:31:30.844Z,6.8
2018-01-26T07:32:32.245Z,6.9
2018-01-26T07:33:33.723Z,6.8
2018-01-26T07:34:35.123Z,6.8
2018-01-26T07:35:36.602Z,6.8
2018-01-26T07:36:38.007Z,6.7
2018-01-26T07:37:39.484Z,6.7
2018-01-26T07:38:40.887Z,6.6
2018-01-26T07:39:42.367Z,6.6
2018-01-26T07:40:43.772Z,6.7
2018-01-26T07:41:45.249Z,6.6
2018-01-26T07:42:46.645Z,6.7
2018-01-26T07:43:48.050Z,6.6
2018-01-26T07:44:49.566Z,6.6
2018-01-26T07:45:50.971Z,6.7
2018-01-26T07:46:52.375Z,6.6
2018-01-26T07:47:54.915Z,6.6
2018-01-26T07:48:56.315Z,6.7
2018-01-26T07:49:57.719Z,6.7
2018-01-26T07:50:59.234Z,6.7
2018-01-26T07:52:00.637Z,6.8
2018-01-26T07:53:02.048Z,6.8
2018-01-26T07:54:03.554Z,6.8
2018-01-26T07:55:04.968Z,6.8
2018-01-26T07:56:06.640Z,6.8
2018-01-26T07:57:08.044Z,6.9
2018-01-26T07:58:09.536Z,6.9
2018-01-26T07:59:10.945Z,6.9
2018-01-26T08:00:12.605Z,6.9
2018-01-26T08:01:14.011Z,6.9
2018-01-26T08:02:15.413Z,6.9
2018-01-26T08:03:16.810Z,6.9
2018-01-26T08:04:18.212Z,6.9
2018-01-26T08:05:19.807Z,6.9
2018-01-26T08:06:21.212Z,7.0
2018-01-26T08:07:22.618Z,7.0
2018-01-26T08:08:24.028Z,7.0
2018-01-26T08:09:25.516Z,7.0
2018-01-26T08:10:26.918Z,7.0
2018-01-26T08:11:28.389Z,7.1
2018-01-26T08:12:29.746Z,7.0
2018-01-26T08:13:31.279Z,7.0
2018-01-26T08:14:32.681Z,7.1
2018-01-26T08:15:34.159Z,7.1
2018-01-26T08:16:35.564Z,7.2
2018-01-26T08:17:37.043Z,7.2
2018-01-26T08:18:38.442Z,7.2
2018-01-26T08:19:39.923Z,7.1
2018-01-26T08:20:41.325Z,7.1
2018-01-26T08:21:42.807Z,7.2
2018-01-26T08:22:44.210Z,7.1
2018-01-26T08:23:45.617Z,7.1
2018-01-26T08:24:47.125Z,7.1
2018-01-26T08:25:48.531Z,7.1
2018-01-26T08:26:49.932Z,7.0
2018-01-26T08:27:51.447Z,7.0
2018-01-26T08:28:53.237Z,7.0
2018-01-26T08:29:54.738Z,7.1
2018-01-26T08:30:56.142Z,7.0
2018-01-26T08:31:57.618Z,7.1
2018-01-26T08:32:59.020Z,7.1
2018-01-26T08:34:00.424Z,7.1
2018-01-26T08:35:01.940Z,7.1
2018-01-26T08:36:03.346Z,7.2
2018-01-26T08:37:04.750Z,7.2
2018-01-26T08:38:06.265Z,7.2
2018-01-26T08:39:07.671Z,7.2
2018-01-26T08:40:09.076Z,7.3
2018-01-26T08:41:10.605Z,7.3
2018-01-26T08:42:12.012Z,7.4
2018-01-26T08:43:13.415Z,7.5
2018-01-26T08:44:14.905Z,7.5
2018-01-26T08:45:16.694Z,7.5
2018-01-26T08:46:18.097Z,7.6
2018-01-26T08:47:20.004Z,7.5
2018-01-26T08:48:21.418Z,7.7
2018-01-26T08:49:22.823Z,7.6
2018-01-26T08:50:24.371Z,7.7
2018-01-26T08:51:25.773Z,7.7
2018-01-26T08:52:27.249Z,7.7
2018-01-26T08:53:28.655Z,7.7
2018-01-26T08:54:30.156Z,7.7
2018-01-26T08:55:31.534Z,7.8
2018-01-26T08:56:33.038Z,7.8
2018-01-26T08:57:34.448Z,7.8
2018-01-26T08:58:35.892Z,7.9
2018-01-26T08:59:37.301Z,7.9
2018-01-26T09:00:38.772Z,8.1
2018-01-26T09:01:40.177Z,8.1
2018-01-26T09:02:41.657Z,8.0
2018-01-26T09:03:43.062Z,8.2
2018-01-26T09:04:44.488Z,8.1
2018-01-26T09:05:45.903Z,8.3
2018-01-26T09:06:47.311Z,8.2
2018-01-26T09:07:48.719Z,8.3
2018-01-26T09:08:50.123Z,8.3
2018-01-26T09:09:51.741Z,8.3
2018-01-26T09:10:53.149Z,8.5
2018-01-26T09:11:54.902Z,8.5
2018-01-26T09:12:56.310Z,8.4
2018-01-26T09:13:57.718Z,8.5
2018-01-26T09:14:59.188Z,8.6
2018-01-26T09:16:00.590Z,8.6
2018-01-26T09:17:01.997Z,8.6
2018-01-26T09:18:03.511Z,8.7
2018-01-26T09:19:04.914Z,8.6
2018-01-26T09:20:06.396Z,8.6
2018-01-26T09:21:07.799Z,8.7
2018-01-26T09:22:09.276Z,8.7
2018-01-26T09:23:10.702Z,8.7
2018-01-26T09:24:12.107Z,8.8
2018-01-26T09:25:13.567Z,8.9
2018-01-26T09:26:14.975Z,8.8
2018-01-26T09:27:16.388Z,8.9
2018-01-26T09:28:17.877Z,8.9
2018-01-26T09:29:19.282Z,9.1
2018-01-26T09:30:20.689Z,9.1
2018-01-26T09:31:22.195Z,9.2
2018-01-26T09:32:23.601Z,9.2
2018-01-26T09:33:25.012Z,9.2
2018-01-26T09:34:26.517Z,9.4
2018-01-26T09:35:27.926Z,9.4
2018-01-26T09:36:29.333Z,9.4
2018-01-26T09:37:30.838Z,9.5
2018-01-26T09:38:32.247Z,9.6
2018-01-26T09:39:33.652Z,9.7
2018-01-26T09:40:35.161Z,9.8
2018-01-26T09:41:36.570Z,9.8
2018-01-26T09:42:37.979Z,9.8
2018-01-26T09:43:39.481Z,9.8
2018-01-26T09:44:40.887Z,9.9
2018-01-26T09:45:42.365Z,10.0
2018-01-26T09:46:43.772Z,10.1
2018-01-26T09:47:45.245Z,10.3
2018-01-26T09:48:46.659Z,10.4
2018-01-26T09:49:48.076Z,10.5
2018-01-26T09:50:49.486Z,10.6
2018-01-26T09:51:50.899Z,10.8
2018-01-26T09:52:52.309Z,10.8
2018-01-26T09:53:53.717Z,10.9
2018-01-26T09:54:55.124Z,11.1
2018-01-26T09:55:56.566Z,11.1
2018-01-26T09:56:57.975Z,11.0
2018-01-26T09:57:59.385Z,11.1
2018-01-26T09:59:00.890Z,10.9
2018-01-26T10:00:02.298Z,10.9
2018-01-26T10:01:03.768Z,10.9
2018-01-26T10:02:05.183Z,10.8
2018-01-26T10:03:06.650Z,10.8
2018-01-26T10:04:08.447Z,10.9
2018-01-26T10:05:09.854Z,10.8
2018-01-26T10:06:11.381Z,10.9
2018-01-26T10:07:12.789Z,10.9
2018-01-26T10:08:14.196Z,10.9
2018-01-26T10:09:15.702Z,10.8
2018-01-26T10:10:17.123Z,10.8
2018-01-26T10:11:18.583Z,10.8
2018-01-26T10:12:20.021Z,10.9
2018-01-26T10:13:21.463Z,10.9
2018-01-26T10:14:22.876Z,11.1
2018-01-26T10:15:24.344Z,11.0
2018-01-26T10:16:25.754Z,11.1
2018-01-26T10:17:27.226Z,11.1
2018-01-26T10:18:28.678Z,11.1
2018-01-26T10:19:30.108Z,11.2
2018-01-26T10:20:31.514Z,11.2
2018-01-26T10:21:32.988Z,11.3
2018-01-26T10:22:34.398Z,11.3
2018-01-26T10:23:35.872Z,11.5
2018-01-26T10:24:37.276Z,11.5
2018-01-26T10:25:38.752Z,11.7
2018-01-26T10:26:40.168Z,11.8
2018-01-26T10:27:41.674Z,12.0
2018-01-26T10:28:43.083Z,12.1
2018-01-26T10:29:44.496Z,12.0
2018-01-26T10:30:45.953Z,12.2
2018-01-26T10:31:47.361Z,12.1
2018-01-26T10:32:48.774Z,12.1
2018-01-26T10:33:50.274Z,12.1
2018-01-26T10:34:51.684Z,12.1
2018-01-26T10:35:53.097Z,12.1
2018-01-26T10:36:54.597Z,12.2
2018-01-26T10:37:56.008Z,12.1
2018-01-26T10:38:57.416Z,12.1
2018-01-26T10:39:58.918Z,12.2
2018-01-26T10:41:00.326Z,12.2
2018-01-26T10:42:01.802Z,12.1
2018-01-26T10:43:03.209Z,12.2
2018-01-26T10:44:04.684Z,12.2
2018-01-26T10:45:06.092Z,12.2
2018-01-26T10:46:07.946Z,12.2
2018-01-26T10:47:09.356Z,12.1
2018-01-26T10:48:10.857Z,12.1
2018-01-26T10:49:12.266Z,12.2
2018-01-26T10:50:13.735Z,12.1
2018-01-26T10:51:15.143Z,12.2
2018-01-26T10:52:16.615Z,12.1
2018-01-26T10:53:18.028Z,12.1
2018-01-26T10:54:19.496Z,12.2
2018-01-26T10:55:20.926Z,12.2
2018-01-26T10:56:22.376Z,12.1
2018-01-26T10:57:23.788Z,12.1
2018-01-26T10:58:25.262Z,12.2
2018-01-26T10:59:26.668Z,12.2
2018-01-26T11:00:28.158Z,12.3
2018-01-26T11:01:29.550Z,12.4
2018-01-26T11:02:31.020Z,12.3
2018-01-26T11:03:33.188Z,12.3
2018-01-26T11:04:34.720Z,12.4
2018-01-26T11:05:36.130Z,12.3
2018-01-26T11:06:37.600Z,12.2
2018-01-26T11:07:39.011Z,12.2
2018-01-26T11:08:40.479Z,12.1
2018-01-26T11:09:41.890Z,12.3
2018-01-26T11:10:43.363Z,12.3
2018-01-26T11:11:44.770Z,12.4
2018-01-26T11:12:46.246Z,12.4
2018-01-26T11:13:47.654Z,12.5
2018-01-26T11:14:49.062Z,12.5
2018-01-26T11:15:50.566Z,12.5
2018-01-26T11:16:51.976Z,12.5
2018-01-26T11:17:53.382Z,12.5
2018-01-26T11:18:54.887Z,12.8
2018-01-26T11:19:56.294Z,13.0
2018-01-26T11:20:57.702Z,13.2
2018-01-26T11:21:59.209Z,13.3
2018-01-26T11:23:00.631Z,13.3
2018-01-26T11:24:02.091Z,13.3
2018-01-26T11:25:03.503Z,13.3
2018-01-26T11:26:04.910Z,13.2
2018-01-26T11:27:06.826Z,13.2
2018-01-26T11:28:08.248Z,13.1
2018-01-26T11:29:09.655Z,13.0
2018-01-26T11:30:11.144Z,13.0
2018-01-26T11:31:12.553Z,12.9
2018-01-26T11:32:13.959Z,12.9
2018-01-26T11:33:15.464Z,12.8
2018-01-26T11:34:16.874Z,12.8
2018-01-26T11:35:18.283Z,12.8
2018-01-26T11:36:19.787Z,12.8
2018-01-26T11:37:21.197Z,12.7
2018-01-26T11:38:22.983Z,12.7
2018-01-26T11:39:24.509Z,12.7
2018-01-26T11:40:26.297Z,12.7
2018-01-26T11:41:27.706Z,12.6
2018-01-26T11:42:29.249Z,12.6
2018-01-26T11:43:30.662Z,12.5
2018-01-26T11:44:32.131Z,12.5
2018-01-26T11:45:33.542Z,12.5
2018-01-26T11:46:34.948Z,12.6
2018-01-26T11:47:36.834Z,12.7
2018-01-26T11:48:38.243Z,12.7
2018-01-26T11:49:39.650Z,12.7
2018-01-26T11:50:41.183Z,12.7
2018-01-26T11:51:42.984Z,12.8
2018-01-26T11:52:44.473Z,12.8
2018-01-26T11:53:45.883Z,12.8
2018-01-26T11:54:47.368Z,12.8
2018-01-26T11:55:48.824Z,12.8
2018-01-26T11:56:50.235Z,12.9
2018-01-26T11:57:51.645Z,12.9
2018-01-26T11:58:53.116Z,12.8
2018-01-26T11:59:54.525Z,12.8
2018-01-26T12:00:55.933Z,12.8
2018-01-26T12:01:57.438Z,12.7
2018-01-26T12:02:58.847Z,12.7
2018-01-26T12:04:00.261Z,12.8
2018-01-26T12:05:01.760Z,12.9
2018-01-26T12:06:03.170Z,12.9
2018-01-26T12:07:04.615Z,12.9
2018-01-26T12:08:06.081Z,13.0
2018-01-26T12:09:07.491Z,12.9
2018-01-26T12:10:08.899Z,13.0
2018-01-26T12:11:10.405Z,13.0
2018-01-26T12:12:11.814Z,13.0
2018-01-26T12:13:13.226Z,13.0
2018-01-26T12:14:14.730Z,13.0
2018-01-26T12:15:16.132Z,13.0
2018-01-26T12:16:17.546Z,13.1
2018-01-26T12:17:19.046Z,13.1
2018-01-26T12:18:20.456Z,13.1
2018-01-26T12:19:21.868Z,13.1
2018-01-26T12:20:23.368Z,13.0
2018-01-26T12:21:24.778Z,13.0
2018-01-26T12:22:26.262Z,13.0
2018-01-26T12:23:27.656Z,13.0
2018-01-26T12:24:29.131Z,13.0
2018-01-26T12:25:30.545Z,13.0
2018-01-26T12:26:32.012Z,12.9
2018-01-26T12:27:33.427Z,12.9
2018-01-26T12:28:34.893Z,12.8
2018-01-26T12:29:36.301Z,12.7
2018-01-26T12:30:37.775Z,12.7
2018-01-26T12:31:39.184Z,12.7
2018-01-26T12:32:40.655Z,12.7
2018-01-26T12:33:42.064Z,12.6
2018-01-26T12:34:43.538Z,12.6
2018-01-26T12:35:44.945Z,12.7
2018-01-26T12:36:46.417Z,12.8
2018-01-26T12:37:47.825Z,12.9
2018-01-26T12:38:49.310Z,12.8
2018-01-26T12:39:51.098Z,12.8
2018-01-26T12:40:52.601Z,12.8
2018-01-26T12:41:54.011Z,12.8
2018-01-26T12:42:55.483Z,12.8
2018-01-26T12:43:56.892Z,12.8
2018-01-26T12:44:58.362Z,12.9
2018-01-26T12:46:00.148Z,12.9
2018-01-26T12:47:01.653Z,12.9
2018-01-26T12:48:03.062Z,12.9
2018-01-26T12:49:04.581Z,12.8
2018-01-26T12:50:05.940Z,12.8
2018-01-26T12:51:07.415Z,12.7
2018-01-26T12:52:08.825Z,12.6
2018-01-26T12:53:10.297Z,12.6
2018-01-26T12:54:11.704Z,12.6
2018-01-26T12:55:13.175Z,12.7
2018-01-26T12:56:14.586Z,12.7
2018-01-26T12:57:15.998Z,12.7
2018-01-26T12:58:17.497Z,12.6
2018-01-26T12:59:18.907Z,12.6
2018-01-26T13:00:20.316Z,12.6
2018-01-26T13:01:21.822Z,12.6
2018-01-26T13:02:23.232Z,12.6
2018-01-26T13:03:24.697Z,12.6
2018-01-26T13:04:26.104Z,12.6
2018-01-26T13:05:27.582Z,12.6
2018-01-26T13:06:29.016Z,12.5
2018-01-26T13:07:30.427Z,12.5
2018-01-26T13:08:31.901Z,12.5
2018-01-26T13:09:33.314Z,12.5
2018-01-26T13:10:34.724Z,12.5
2018-01-26T13:11:36.223Z,12.5
2018-01-26T13:12:37.624Z,12.5
2018-01-26T13:13:39.103Z,12.5
2018-01-26T13:14:40.512Z,12.5
2018-01-26T13:15:42.084Z,12.5
2018-01-26T13:16:43.494Z,12.5
2018-01-26T13:17:44.910Z,12.5
2018-01-26T13:18:46.613Z,12.5
2018-01-26T13:19:48.026Z,12.4
2018-01-26T13:20:49.696Z,12.4
2018-01-26T13:21:51.108Z,12.4
2018-01-26T13:22:52.782Z,12.5
2018-01-26T13:23:54.194Z,12.5
2018-01-26T13:24:55.869Z,12.4
2018-01-26T13:25:57.276Z,12.5
2018-01-26T13:26:58.848Z,12.5
2018-01-26T13:28:00.258Z,12.6
2018-01-26T13:29:01.835Z,12.5
2018-01-26T13:30:03.247Z,12.5
2018-01-26T13:31:04.920Z,12.5
2018-01-26T13:32:06.334Z,12.5
2018-01-26T13:33:07.741Z,12.4
2018-01-26T13:34:09.341Z,12.3
2018-01-26T13:35:10.752Z,12.3
2018-01-26T13:36:12.161Z,12.3
2018-01-26T13:37:13.663Z,12.2
2018-01-26T13:38:15.073Z,12.2
2018-01-26T13:39:16.483Z,12.1
2018-01-26T13:40:17.985Z,12.2
2018-01-26T13:41:19.394Z,12.1
2018-01-26T13:42:20.802Z,12.1
2018-01-26T13:43:22.305Z,12.1
2018-01-26T13:44:23.754Z,12.1
2018-01-26T13:45:25.185Z,12.1
2018-01-26T13:46:26.594Z,12.1
2018-01-26T13:47:28.090Z,12.1
2018-01-26T13:48:29.476Z,12.0
2018-01-26T13:49:30.958Z,12.1
2018-01-26T13:50:32.356Z,12.2
2018-01-26T13:51:33.767Z,12.0
2018-01-26T13:52:35.271Z,12.0
2018-01-26T13:53:36.682Z,11.9
2018-01-26T13:54:38.089Z,11.9
2018-01-26T13:55:39.593Z,11.9
2018-01-26T13:56:41.002Z,11.9
2018-01-26T13:57:42.412Z,11.8